Portada
METAR-TAF:

METAR-TAF

Aeroports :

Aeroport Internacional de Mitiga

Trípoli, Líbia

latitud: 32-54N, longitud: 13-17E, altitud: 11 m

METAR: manca

Hora: 06:41 (04:41 UTC)

Pronòstic

L'informe es va fer fa 11 hores i 41 minuts, a les 17:00 UTC
Pronòstic vàlid del 20 a les 18 UTC al 21 a les 18 UTC
Vent 2 kt amb direcció variable
Visibilitat 10 km o més
sense núvols per sota de 1500 mi sense presència de cumulonimbus.
Evolucionant progressivament
l' 21 a les 00 UTC al 21 a les 02 UTC
Vent 12 kt del Nord-Est
Evolucionant progressivament
l' 21 a les 03 UTC al 21 a les 05 UTC
Vent 2 kt amb direcció variable

TAF: HLLM 201700Z 2018/2118 VRB02KT CAVOK BECMG 2100/2102 05012KT BECMG 2103/2105 VRB02KT

Observacions i pronòstics meteorològics de més de 4000 aeroports (METAR i TAF).

Les estacions disponibles són els punts grocs i vermells al mapa.

Posi el ratolí al punt desitjat per veure el nom de l'estació.

Feu clic per veure les observacions i els pronòstics meteorològics.

Per canviar el mapa: feu clic els botons verds amb una creu de color negre per apropar; al botó verd amb un guió per allunyar la imatge; o en les fletxes verdes per a mapes adjacents.


METAR-TAF: